Millenium Air

Millenium Air Since 1998



 METAR AND TAF INFORMATION
METAR FOR DTTA
ADDS - METARS form results

(0428 UTC 05 August 2020)
Data provider http://aviationweather.gov/metar/data/
 
METAR text: DTTA 050400Z 26007KT 9999 FEW030 23/12 Q1012
Conditions at: DTTA (TUNIS/CARTHAGE , TN) observed 0400 UTC 05 August 2020
Temperature: 23.0°C (73°F)
Dewpoint: 12.0°C (54°F) [RH = 50%]
Pressure (altimeter): 29.88 inches Hg (1012.0 mb)
Winds: from the W (260 degrees) at 8 MPH (7 knots; 3.6 m/s)
Visibility: 6 or more miles (10+ km)
Ceiling: at least 12,000 feet AGL
Clouds: few clouds at 3000 feet AGL
Weather: no significant weather observed at this time

METAR text: DTTA 050330Z 27009KT 9999 FEW030 23/12 Q1012
Conditions at: DTTA (TUNIS/CARTHAGE , TN) observed 0330 UTC 05 August 2020
Temperature: 23.0°C (73°F)
Dewpoint: 12.0°C (54°F) [RH = 50%]
Pressure (altimeter): 29.88 inches Hg (1012.0 mb)
Winds: from the W (270 degrees) at 10 MPH (9 knots; 4.6 m/s)
Visibility: 6 or more miles (10+ km)
Ceiling: at least 12,000 feet AGL
Clouds: few clouds at 3000 feet AGL
Weather: no significant weather observed at this time

Forecast for: DTTA (TUNIS/CARTHAGE , TN)
Text: TAF DTTA 042300Z 0500/0524 32013KT 9999 FEW030
Forecast period: 0000 UTC 05 August 2020 to 0000 UTC 06 August 2020
Forecast type: FROM: standard forecast or significant change
Winds: from the NW (320 degrees) at 15 MPH (13 knots; 6.7 m/s)
Visibility: 6 or more miles 10+ km)
Ceiling: at least 12,000 feet AGL
Clouds: few clouds at 3000 feet AGL
Weather: no significant weather forecast for this period
Text: PROB40
Forecast period: 0100 to 1000 UTC 05 August 2020
Forecast type: TEMPORARY: The following changes expected for less than half the time period
Winds: from the NNW (340 degrees) at 17 MPH (15 knots; 7.7 m/s)
gusting to 29 MPH (25 knots; 12.9 m/s)
Visibility: missing
Ceiling: unknown
Clouds: missing
Weather: no significant weather forecast for this period

 AIRPORT MAP

 RUNWAY INFORMATION
Runway 01 Runway length 10499 ft Runway width 148 ft
Runway elevation 13 ft Runway displaced threshold 0 ft Runway heading 12
Runway 19 Runway length 10499 ft Runway width 148 ft
Runway elevation 21 ft Runway displaced threshold 0 ft Runway heading 192
Runway 11 Runway length 9318 ft Runway width 148 ft
Runway elevation 19 ft Runway displaced threshold 0 ft Runway heading 113
Runway 29 Runway length 9318 ft Runway width 148 ft
Runway elevation 11 ft Runway displaced threshold 657 ft Runway heading 293

 AIRPORT FREQUENCIES
Type APP Name TUNIS APP Frequency 121.2 MHZ
Type ATIS Name TUNIS ATIS Frequency 118.675 MHZ
Type GND Name TUNIS GND Frequency 121.9 MHZ
Type TWR Name TUNIS TWR Frequency 118.1 MHZ

 AIRPORT NEAR NAVIGATION AIDS
Type NDB Name Tunis Frequency 386 KHZ
Type NDB Name Tunis Frequency 325 KHZ
Type VOR-DME Name Tunis Frequency 116500 KHZ